BWA419 TAPA-TBPB
Flight info
| Callsign | BWA419 |
|---|---|
| Flight time | 0h 47m |
| Altitude | 24000 |
| Route | ANU A632 BIRNO/N0365F230 A632 BGI |
| Aircraft | B38M/M-SDE1FGHILORVWXY/HB1 |
Departure
| Time | 2026-05-08 23:29 |
|---|---|
| Airport | V. C. Bird International Airport (TAPA) |
Arrival
| Time | 2026-05-09 00:16 |
|---|---|
| Airport | Grantley Adams International Airport (TBPB) |
| Time | Latitude | Longitude | Altitude | Speed | Heading |
|---|---|---|---|---|---|
| 2026-05-08 22:56 | 17.14136 | -61.78978 | 66 ft | 0 kts | 328° |
| 2026-05-08 23:17 | 17.14135 | -61.78977 | 66 ft | 2 kts | 328° |
| 2026-05-08 23:17 | 17.14121 | -61.78967 | 40 ft | 2 kts | 326° |
| 2026-05-08 23:18 | 17.14108 | -61.78957 | 81 ft | 2 kts | 322° |
| 2026-05-08 23:18 | 17.14095 | -61.78947 | 60 ft | 2 kts | 317° |
| 2026-05-08 23:18 | 17.14084 | -61.78934 | 62 ft | 2 kts | 306° |
| 2026-05-08 23:18 | 17.14077 | -61.78919 | 58 ft | 2 kts | 272° |
| 2026-05-08 23:19 | 17.14081 | -61.78902 | 59 ft | 2 kts | 239° |
| 2026-05-08 23:19 | 17.14089 | -61.78888 | 60 ft | 1 kts | 238° |
| 2026-05-08 23:19 | 17.14091 | -61.78886 | 60 ft | 0 kts | 238° |
| 2026-05-08 23:22 | 17.14088 | -61.78891 | 60 ft | 5 kts | 238° |
| 2026-05-08 23:22 | 17.14050 | -61.78954 | 59 ft | 14 kts | 238° |
| 2026-05-08 23:23 | 17.13996 | -61.79049 | 66 ft | 17 kts | 238° |
| 2026-05-08 23:23 | 17.13907 | -61.79127 | 60 ft | 12 kts | 205° |
| 2026-05-08 23:23 | 17.13857 | -61.79176 | 64 ft | 11 kts | 234° |
| 2026-05-08 23:23 | 17.13811 | -61.79248 | 62 ft | 13 kts | 237° |
| 2026-05-08 23:24 | 17.13752 | -61.79329 | 61 ft | 14 kts | 207° |
| 2026-05-08 23:24 | 17.13668 | -61.79310 | 70 ft | 12 kts | 176° |
| 2026-05-08 23:24 | 17.13619 | -61.79356 | 66 ft | 10 kts | 239° |
| 2026-05-08 23:24 | 17.13583 | -61.79420 | 68 ft | 11 kts | 239° |
| 2026-05-08 23:25 | 17.13537 | -61.79498 | 68 ft | 15 kts | 238° |
| 2026-05-08 23:25 | 17.13477 | -61.79599 | 67 ft | 18 kts | 238° |
| 2026-05-08 23:25 | 17.13405 | -61.79720 | 64 ft | 21 kts | 239° |
| 2026-05-08 23:25 | 17.13325 | -61.79859 | 65 ft | 24 kts | 237° |
| 2026-05-08 23:26 | 17.13232 | -61.80015 | 68 ft | 26 kts | 239° |
| 2026-05-08 23:26 | 17.13135 | -61.80183 | 68 ft | 28 kts | 238° |
| 2026-05-08 23:26 | 17.13085 | -61.80245 | 70 ft | 9 kts | 229° |
| 2026-05-08 23:26 | 17.13078 | -61.80264 | 69 ft | 0 kts | 290° |
| 2026-05-08 23:27 | 17.13080 | -61.80265 | 69 ft | 0 kts | 329° |
| 2026-05-08 23:27 | 17.13086 | -61.80262 | 67 ft | 2 kts | 20° |
| 2026-05-08 23:27 | 17.13098 | -61.80247 | 65 ft | 0 kts | 55° |
| 2026-05-08 23:27 | 17.13099 | -61.80245 | 67 ft | 2 kts | 55° |
| 2026-05-08 23:28 | 17.13117 | -61.80216 | 67 ft | 9 kts | 58° |
| 2026-05-08 23:28 | 17.13218 | -61.80040 | 67 ft | 63 kts | 59° |
| 2026-05-08 23:28 | 17.13588 | -61.79411 | 71 ft | 136 kts | 58° |
| 2026-05-08 23:28 | 17.14165 | -61.78368 | 146 ft | 189 kts | 59° |
| 2026-05-08 23:29 | 17.14760 | -61.77107 | 956 ft | 185 kts | 84° |
| 2026-05-08 23:29 | 17.14432 | -61.75938 | 2198 ft | 174 kts | 125° |
| 2026-05-08 23:29 | 17.13350 | -61.75222 | 2582 ft | 203 kts | 168° |
| 2026-05-08 23:29 | 17.11914 | -61.75498 | 3055 ft | 225 kts | 211° |
| 2026-05-08 23:30 | 17.10852 | -61.76761 | 3562 ft | 244 kts | 246° |
| 2026-05-08 23:30 | 17.10093 | -61.78410 | 4039 ft | 262 kts | 232° |
| 2026-05-08 23:30 | 17.08609 | -61.79555 | 4486 ft | 276 kts | 195° |
| 2026-05-08 23:30 | 17.06723 | -61.79543 | 5194 ft | 271 kts | 156° |
| 2026-05-08 23:31 | 17.05239 | -61.78388 | 5917 ft | 271 kts | 121° |
| 2026-05-08 23:31 | 17.04577 | -61.76572 | 6655 ft | 269 kts | 102° |
| 2026-05-08 23:31 | 17.03796 | -61.74799 | 7289 ft | 281 kts | 130° |
| 2026-05-08 23:31 | 17.02161 | -61.73676 | 8052 ft | 288 kts | 154° |
| 2026-05-08 23:32 | 17.00355 | -61.72707 | 8682 ft | 295 kts | 148° |
| 2026-05-08 23:32 | 16.98567 | -61.71633 | 9427 ft | 299 kts | 148° |
| 2026-05-08 23:32 | 16.96740 | -61.70556 | 10148 ft | 304 kts | 149° |
| 2026-05-08 23:32 | 16.94852 | -61.69456 | 10581 ft | 319 kts | 149° |
| 2026-05-08 23:33 | 16.92874 | -61.68312 | 11050 ft | 331 kts | 149° |
| 2026-05-08 23:33 | 16.90850 | -61.67149 | 11812 ft | 332 kts | 149° |
| 2026-05-08 23:33 | 16.88840 | -61.65994 | 12532 ft | 337 kts | 149° |
| 2026-05-08 23:33 | 16.86779 | -61.64813 | 13311 ft | 340 kts | 150° |
| 2026-05-08 23:34 | 16.84693 | -61.63616 | 14047 ft | 344 kts | 150° |
| 2026-05-08 23:34 | 16.82584 | -61.62407 | 14745 ft | 348 kts | 150° |
| 2026-05-08 23:34 | 16.80457 | -61.61188 | 15455 ft | 351 kts | 150° |
| 2026-05-08 23:34 | 16.78305 | -61.59955 | 16145 ft | 355 kts | 149° |
| 2026-05-08 23:35 | 16.76127 | -61.58708 | 16815 ft | 359 kts | 150° |
| 2026-05-08 23:35 | 16.73929 | -61.57445 | 17477 ft | 362 kts | 149° |
| 2026-05-08 23:35 | 16.71720 | -61.56156 | 18132 ft | 366 kts | 149° |
| 2026-05-08 23:35 | 16.69486 | -61.54854 | 18707 ft | 369 kts | 149° |
| 2026-05-08 23:36 | 16.67234 | -61.53543 | 19269 ft | 372 kts | 149° |
| 2026-05-08 23:36 | 16.64997 | -61.52242 | 19830 ft | 374 kts | 149° |
| 2026-05-08 23:36 | 16.62715 | -61.50915 | 20401 ft | 377 kts | 149° |
| 2026-05-08 23:36 | 16.60417 | -61.49579 | 20965 ft | 379 kts | 149° |
| 2026-05-08 23:37 | 16.58106 | -61.48235 | 21516 ft | 382 kts | 149° |
| 2026-05-08 23:37 | 16.56700 | -61.47418 | 21857 ft | 384 kts | 149° |
| 2026-05-08 23:37 | 16.55171 | -61.46530 | 22220 ft | 385 kts | 148° |
| 2026-05-08 23:37 | 16.52818 | -61.45163 | 22757 ft | 388 kts | 148° |
| 2026-05-08 23:38 | 16.50449 | -61.43788 | 23310 ft | 391 kts | 148° |
| 2026-05-08 23:38 | 16.48068 | -61.42406 | 23805 ft | 393 kts | 148° |
| 2026-05-08 23:38 | 16.45718 | -61.41042 | 23967 ft | 390 kts | 148° |
| 2026-05-08 23:38 | 16.43351 | -61.39668 | 24019 ft | 389 kts | 148° |
| 2026-05-08 23:39 | 16.40983 | -61.38295 | 24017 ft | 389 kts | 148° |
| 2026-05-08 23:39 | 16.38625 | -61.36928 | 24015 ft | 388 kts | 148° |
| 2026-05-08 23:39 | 16.36263 | -61.35558 | 24011 ft | 388 kts | 148° |
| 2026-05-08 23:39 | 16.33902 | -61.34190 | 24015 ft | 388 kts | 148° |
| 2026-05-08 23:40 | 16.31539 | -61.32821 | 24017 ft | 392 kts | 148° |
| 2026-05-08 23:40 | 16.29118 | -61.31418 | 24011 ft | 406 kts | 148° |
| 2026-05-08 23:40 | 16.26612 | -61.29968 | 24013 ft | 419 kts | 148° |
| 2026-05-08 23:40 | 16.24065 | -61.28493 | 24013 ft | 430 kts | 148° |
| 2026-05-08 23:41 | 16.21418 | -61.26961 | 24005 ft | 440 kts | 148° |
| 2026-05-08 23:41 | 16.18714 | -61.25397 | 24009 ft | 449 kts | 148° |
| 2026-05-08 23:41 | 16.15959 | -61.23803 | 24002 ft | 457 kts | 148° |
| 2026-05-08 23:41 | 16.13155 | -61.22182 | 24004 ft | 464 kts | 148° |
| 2026-05-08 23:42 | 16.10316 | -61.20541 | 24004 ft | 470 kts | 148° |
| 2026-05-08 23:42 | 16.07438 | -61.18878 | 24004 ft | 476 kts | 148° |
| 2026-05-08 23:42 | 16.04530 | -61.17199 | 24002 ft | 480 kts | 148° |
| 2026-05-08 23:42 | 16.01596 | -61.15504 | 24003 ft | 485 kts | 148° |
| 2026-05-08 23:43 | 15.98681 | -61.13823 | 24004 ft | 486 kts | 148° |
| 2026-05-08 23:43 | 15.95731 | -61.12120 | 24011 ft | 484 kts | 148° |
| 2026-05-08 23:43 | 15.92791 | -61.10424 | 24008 ft | 483 kts | 148° |
| 2026-05-08 23:43 | 15.89853 | -61.08730 | 24010 ft | 483 kts | 148° |
| 2026-05-08 23:44 | 15.86914 | -61.07036 | 24011 ft | 483 kts | 148° |
| 2026-05-08 23:44 | 15.83975 | -61.05342 | 24007 ft | 483 kts | 148° |
| 2026-05-08 23:44 | 15.81035 | -61.03649 | 24009 ft | 483 kts | 148° |
| 2026-05-08 23:44 | 15.78096 | -61.01956 | 24009 ft | 483 kts | 148° |
| 2026-05-08 23:45 | 15.75197 | -61.00288 | 24012 ft | 483 kts | 148° |
| 2026-05-08 23:45 | 15.72257 | -60.98596 | 24014 ft | 483 kts | 148° |
| 2026-05-08 23:45 | 15.69316 | -60.96904 | 24010 ft | 483 kts | 148° |
| 2026-05-08 23:45 | 15.66378 | -60.95214 | 24009 ft | 483 kts | 148° |
| 2026-05-08 23:46 | 15.63433 | -60.93521 | 24007 ft | 484 kts | 148° |
| 2026-05-08 23:46 | 15.60494 | -60.91831 | 24006 ft | 483 kts | 148° |
| 2026-05-08 23:46 | 15.57552 | -60.90140 | 24011 ft | 483 kts | 148° |
| 2026-05-08 23:46 | 15.54606 | -60.88448 | 24006 ft | 484 kts | 148° |
| 2026-05-08 23:47 | 15.51700 | -60.86779 | 24005 ft | 484 kts | 148° |
| 2026-05-08 23:47 | 15.48762 | -60.85092 | 24006 ft | 484 kts | 148° |
| 2026-05-08 23:47 | 15.45818 | -60.83402 | 24008 ft | 483 kts | 148° |
| 2026-05-08 23:47 | 15.42874 | -60.81713 | 24008 ft | 484 kts | 148° |
| 2026-05-08 23:48 | 15.39930 | -60.80025 | 24006 ft | 484 kts | 148° |
| 2026-05-08 23:48 | 15.36990 | -60.78339 | 24006 ft | 484 kts | 147° |
| 2026-05-08 23:48 | 15.34043 | -60.76649 | 24003 ft | 483 kts | 147° |
| 2026-05-08 23:48 | 15.31100 | -60.74963 | 24004 ft | 483 kts | 147° |
| 2026-05-08 23:49 | 15.28161 | -60.73280 | 24000 ft | 484 kts | 147° |
| 2026-05-08 23:49 | 15.25216 | -60.71593 | 24000 ft | 483 kts | 147° |
| 2026-05-08 23:49 | 15.22312 | -60.69931 | 24000 ft | 483 kts | 147° |
| 2026-05-08 23:49 | 15.19366 | -60.68244 | 24002 ft | 483 kts | 147° |
| 2026-05-08 23:50 | 15.16421 | -60.66560 | 24002 ft | 484 kts | 147° |
| 2026-05-08 23:50 | 15.13478 | -60.64877 | 24000 ft | 483 kts | 147° |
| 2026-05-08 23:50 | 15.10534 | -60.63194 | 24006 ft | 483 kts | 147° |
| 2026-05-08 23:50 | 15.07593 | -60.61513 | 24003 ft | 483 kts | 147° |
| 2026-05-08 23:51 | 15.04647 | -60.59829 | 24003 ft | 483 kts | 147° |
| 2026-05-08 23:51 | 15.01705 | -60.58149 | 24006 ft | 483 kts | 147° |
| 2026-05-08 23:51 | 14.98798 | -60.56489 | 24000 ft | 483 kts | 147° |
| 2026-05-08 23:51 | 14.95858 | -60.54811 | 23995 ft | 483 kts | 147° |
| 2026-05-08 23:52 | 14.92914 | -60.53131 | 23997 ft | 483 kts | 147° |
| 2026-05-08 23:52 | 14.89970 | -60.51452 | 23997 ft | 483 kts | 147° |
| 2026-05-08 23:52 | 14.87030 | -60.49775 | 23998 ft | 483 kts | 147° |
| 2026-05-08 23:52 | 14.84090 | -60.48098 | 23995 ft | 483 kts | 147° |
| 2026-05-08 23:53 | 14.81144 | -60.46420 | 23990 ft | 483 kts | 147° |
| 2026-05-08 23:53 | 14.78200 | -60.44742 | 23993 ft | 483 kts | 147° |
| 2026-05-08 23:53 | 14.75294 | -60.43087 | 23989 ft | 483 kts | 147° |
| 2026-05-08 23:53 | 14.72351 | -60.41411 | 23993 ft | 483 kts | 147° |
| 2026-05-08 23:54 | 14.69404 | -60.39734 | 23989 ft | 483 kts | 147° |
| 2026-05-08 23:54 | 14.66456 | -60.38057 | 23993 ft | 484 kts | 146° |
| 2026-05-08 23:54 | 14.63513 | -60.36383 | 23986 ft | 483 kts | 146° |
| 2026-05-08 23:55 | 14.57618 | -60.33031 | 23991 ft | 484 kts | 146° |
| 2026-05-08 23:55 | 14.54671 | -60.31356 | 23985 ft | 484 kts | 146° |
| 2026-05-08 23:55 | 14.51718 | -60.29678 | 23991 ft | 484 kts | 146° |
| 2026-05-08 23:55 | 14.48768 | -60.28002 | 23993 ft | 484 kts | 146° |
| 2026-05-08 23:56 | 14.45853 | -60.26347 | 23989 ft | 484 kts | 146° |
| 2026-05-08 23:56 | 14.42903 | -60.24672 | 23989 ft | 485 kts | 146° |
| 2026-05-08 23:56 | 14.39945 | -60.22994 | 23988 ft | 485 kts | 146° |
| 2026-05-08 23:56 | 14.36990 | -60.21318 | 23985 ft | 485 kts | 146° |
| 2026-05-08 23:57 | 14.34033 | -60.19642 | 23992 ft | 485 kts | 147° |
| 2026-05-08 23:57 | 14.31078 | -60.17968 | 23987 ft | 485 kts | 147° |
| 2026-05-08 23:57 | 14.28117 | -60.16291 | 23993 ft | 485 kts | 147° |
| 2026-05-08 23:57 | 14.25154 | -60.14613 | 23994 ft | 486 kts | 147° |
| 2026-05-08 23:58 | 14.22221 | -60.12977 | 23988 ft | 488 kts | 150° |
| 2026-05-08 23:58 | 14.19007 | -60.11802 | 23995 ft | 493 kts | 160° |
| 2026-05-08 23:58 | 14.15761 | -60.10721 | 23412 ft | 487 kts | 157° |
| 2026-05-08 23:58 | 14.12543 | -60.09566 | 22247 ft | 491 kts | 157° |
| 2026-05-08 23:59 | 14.09362 | -60.08401 | 21427 ft | 480 kts | 157° |
| 2026-05-08 23:59 | 14.06233 | -60.07244 | 20575 ft | 475 kts | 158° |
| 2026-05-08 23:59 | 14.03147 | -60.06097 | 19966 ft | 469 kts | 158° |
| 2026-05-08 23:59 | 14.00098 | -60.04963 | 19355 ft | 463 kts | 158° |
| 2026-05-09 00:00 | 13.97127 | -60.03859 | 18743 ft | 458 kts | 159° |
| 2026-05-09 00:00 | 13.94140 | -60.02748 | 18095 ft | 454 kts | 159° |
| 2026-05-09 00:00 | 13.91198 | -60.01654 | 17221 ft | 445 kts | 159° |
| 2026-05-09 00:00 | 13.88298 | -60.00577 | 16152 ft | 441 kts | 160° |
| 2026-05-09 00:01 | 13.85405 | -59.99502 | 15474 ft | 439 kts | 160° |
| 2026-05-09 00:01 | 13.82553 | -59.98444 | 14947 ft | 433 kts | 160° |
| 2026-05-09 00:01 | 13.79737 | -59.97398 | 14443 ft | 427 kts | 160° |
| 2026-05-09 00:01 | 13.76968 | -59.96370 | 13887 ft | 416 kts | 160° |
| 2026-05-09 00:02 | 13.74315 | -59.95385 | 12987 ft | 407 kts | 160° |
| 2026-05-09 00:02 | 13.71674 | -59.94404 | 12072 ft | 400 kts | 160° |
| 2026-05-09 00:02 | 13.69083 | -59.93443 | 11335 ft | 390 kts | 160° |
| 2026-05-09 00:02 | 13.66617 | -59.92530 | 11204 ft | 364 kts | 160° |
| 2026-05-09 00:03 | 13.64316 | -59.91677 | 11080 ft | 340 kts | 160° |
| 2026-05-09 00:03 | 13.62155 | -59.90876 | 10931 ft | 320 kts | 160° |
| 2026-05-09 00:03 | 13.60118 | -59.90121 | 10777 ft | 303 kts | 159° |
| 2026-05-09 00:03 | 13.58177 | -59.89402 | 10633 ft | 292 kts | 159° |
| 2026-05-09 00:04 | 13.56286 | -59.88702 | 10478 ft | 285 kts | 159° |
| 2026-05-09 00:04 | 13.54471 | -59.88030 | 10339 ft | 279 kts | 159° |
| 2026-05-09 00:04 | 13.52630 | -59.87348 | 10210 ft | 286 kts | 159° |
| 2026-05-09 00:04 | 13.50733 | -59.86646 | 10063 ft | 292 kts | 159° |
| 2026-05-09 00:05 | 13.48814 | -59.85935 | 9838 ft | 294 kts | 159° |
| 2026-05-09 00:05 | 13.46884 | -59.85221 | 9507 ft | 295 kts | 159° |
| 2026-05-09 00:05 | 13.44956 | -59.84508 | 9187 ft | 294 kts | 159° |
| 2026-05-09 00:05 | 13.43037 | -59.83798 | 8868 ft | 292 kts | 159° |
| 2026-05-09 00:06 | 13.41132 | -59.83092 | 8566 ft | 290 kts | 159° |
| 2026-05-09 00:06 | 13.39236 | -59.82392 | 8254 ft | 289 kts | 158° |
| 2026-05-09 00:06 | 13.37379 | -59.81705 | 7963 ft | 287 kts | 158° |
| 2026-05-09 00:06 | 13.35504 | -59.81012 | 7657 ft | 286 kts | 158° |
| 2026-05-09 00:07 | 13.33640 | -59.80323 | 7355 ft | 284 kts | 158° |
| 2026-05-09 00:07 | 13.31789 | -59.79639 | 7065 ft | 282 kts | 158° |
| 2026-05-09 00:07 | 13.29948 | -59.78959 | 6766 ft | 281 kts | 158° |
| 2026-05-09 00:07 | 13.28113 | -59.78280 | 6461 ft | 280 kts | 158° |
| 2026-05-09 00:08 | 13.26285 | -59.77605 | 6163 ft | 279 kts | 158° |
| 2026-05-09 00:08 | 13.24666 | -59.77007 | 5881 ft | 278 kts | 158° |
| 2026-05-09 00:08 | 13.22876 | -59.76346 | 5575 ft | 275 kts | 158° |
| 2026-05-09 00:08 | 13.21105 | -59.75692 | 5265 ft | 268 kts | 158° |
| 2026-05-09 00:09 | 13.19360 | -59.75047 | 4993 ft | 266 kts | 157° |
| 2026-05-09 00:09 | 13.17623 | -59.74406 | 4705 ft | 265 kts | 158° |
| 2026-05-09 00:09 | 13.15894 | -59.73768 | 4395 ft | 263 kts | 158° |
| 2026-05-09 00:09 | 13.14186 | -59.73138 | 4197 ft | 257 kts | 157° |
| 2026-05-09 00:10 | 13.12530 | -59.72528 | 4066 ft | 248 kts | 157° |
| 2026-05-09 00:10 | 13.10931 | -59.71938 | 3943 ft | 240 kts | 157° |
| 2026-05-09 00:10 | 13.09388 | -59.71369 | 3819 ft | 231 kts | 157° |
| 2026-05-09 00:10 | 13.07920 | -59.70827 | 3695 ft | 223 kts | 157° |
| 2026-05-09 00:11 | 13.06486 | -59.70298 | 3570 ft | 215 kts | 156° |
| 2026-05-09 00:11 | 13.05086 | -59.69778 | 3445 ft | 213 kts | 154° |
| 2026-05-09 00:11 | 13.03942 | -59.68947 | 3328 ft | 196 kts | 124° |
| 2026-05-09 00:11 | 13.03421 | -59.67711 | 3199 ft | 187 kts | 96° |
| 2026-05-09 00:12 | 13.03481 | -59.66392 | 3038 ft | 186 kts | 79° |
| 2026-05-09 00:12 | 13.03721 | -59.65082 | 2795 ft | 188 kts | 78° |
| 2026-05-09 00:12 | 13.03989 | -59.63771 | 2562 ft | 186 kts | 77° |
| 2026-05-09 00:12 | 13.04267 | -59.62513 | 2327 ft | 182 kts | 77° |
| 2026-05-09 00:13 | 13.04511 | -59.61274 | 2066 ft | 169 kts | 79° |
| 2026-05-09 00:13 | 13.04715 | -59.60136 | 1820 ft | 154 kts | 77° |
| 2026-05-09 00:13 | 13.04958 | -59.59131 | 1657 ft | 140 kts | 76° |
| 2026-05-09 00:13 | 13.05199 | -59.58169 | 1404 ft | 138 kts | 73° |
| 2026-05-09 00:14 | 13.05468 | -59.57213 | 1316 ft | 141 kts | 76° |
| 2026-05-09 00:14 | 13.05691 | -59.56227 | 1193 ft | 140 kts | 77° |
| 2026-05-09 00:14 | 13.05905 | -59.55252 | 1006 ft | 140 kts | 77° |
| 2026-05-09 00:14 | 13.06177 | -59.54296 | 837 ft | 138 kts | 75° |
| 2026-05-09 00:15 | 13.06434 | -59.53350 | 695 ft | 141 kts | 77° |
| 2026-05-09 00:15 | 13.06683 | -59.52380 | 560 ft | 145 kts | 76° |
| 2026-05-09 00:15 | 13.06934 | -59.51361 | 346 ft | 148 kts | 77° |
| 2026-05-09 00:15 | 13.07185 | -59.50363 | 192 ft | 138 kts | 77° |
| 2026-05-09 00:16 | 13.07386 | -59.49523 | 179 ft | 96 kts | 76° |
| 2026-05-09 00:16 | 13.07496 | -59.49084 | 178 ft | 40 kts | 74° |
| 2026-05-09 00:16 | 13.07597 | -59.48928 | 178 ft | 23 kts | 49° |
| 2026-05-09 00:16 | 13.07643 | -59.48877 | 179 ft | 1 kts | 46° |
| 2026-05-09 00:17 | 13.07654 | -59.48865 | 179 ft | 4 kts | 46° |
| 2026-05-09 00:17 | 13.07677 | -59.48840 | 179 ft | 6 kts | 46° |
| 2026-05-09 00:17 | 13.07713 | -59.48802 | 179 ft | 9 kts | 46° |
| 2026-05-09 00:17 | 13.07748 | -59.48772 | 180 ft | 7 kts | 51° |
| 2026-05-09 00:18 | 13.07795 | -59.48734 | 180 ft | 9 kts | 14° |
| 2026-05-09 00:18 | 13.07845 | -59.48744 | 180 ft | 8 kts | 347° |
| 2026-05-09 00:18 | 13.07876 | -59.48752 | 180 ft | 1 kts | 345° |
| 2026-05-09 00:18 | 13.07881 | -59.48754 | 180 ft | 0 kts | 345° |